Quick Links (Output Below):   Max & Min Temps   /   Climate Reports   /   Zone Forecasts
River Forecasts   /   Forestry Forecasts   /   Aviation Forecasts   /   Radars   /   Features

Terminal Aerodrome Forecast (Fort Smith)

Pick a Site:
Arkadelphia | El Dorado | Fayetteville | Fort Smith | Harrison | Highfill | Hot Springs | Jonesboro
Little Rock | Monticello | Mountain Home | Pine Bluff | Texarkana
 Forecast 

KFSM 250057Z 2501/2524 29020G28KT P6SM SKC
     FM250300 VRB02KT P6SM SKC
     FM251900 16005KT P6SM SKC=


 Latest METARs (Observations) 
How to Decode METARs
01Z KFSM 250053Z 29020G28KT 10SM CLR 19/09 A2981 RMK AO2 PK WND
         30028/0053 SLP091 T01940089
         
00Z KFSM 242353Z 29013KT 10SM CLR 21/12 A2977 RMK AO2 SLP079 60009
         T02060117 10250 20161 51025
         
***** Today's Observations (Above) *****


23Z KFSM 242253Z 25007KT 10SM FEW043 19/15 A2977 RMK AO2 SLP076
         T01940150
         
22Z KFSM 242153Z 26007KT 10SM FEW015 BKN037 16/14 A2974 RMK AO2
         RAE01B38E52 TSB2054E20 SLP067 LTG CC DSTN P0000 T01610139
         
21Z KFSM 242053Z 26008KT 10SM -RA FEW030 SCT044 BKN070 16/13 A2970 RMK
         AO2 PK WND 29042/2034 WSHFT 2032 RAB31 TSE20B33E52 SLP055 LGT
         OHD CCCG MOV EAST P0009 60009 T01610133 55015
         
20Z KFSM 241953Z AUTO 20010G16KT 170V240 10SM FEW032 BKN039 BKN049
         24/17 A2969 RMK AO2 SLP051 T02440172 TSNO
         
19Z KFSM 241853Z 19006KT 10SM OVC025 23/18 A2972 RMK AO2 SLP061
         T02280178
         
18Z KFSM 241753Z 10003KT 10SM OVC031 19/17 A2974 RMK AO2 SLP069 60023
         T01890167 10189 20144 56014
         
17Z KFSM 241653Z 09006KT 10SM BKN048 OVC060 17/16 A2976 RMK AO2 RAE40
         TSB05E46 SLP075 P0002 T01720156
         
16Z KFSM 241553Z 16004KT 10SM -RA BKN036 BKN046 BKN085 16/14 A2979 RMK
         AO2 RAE00B22E33B49 TSE13 SLP083 P0000 T01610144
         
***** Yesterday's Observations (Above) *****


Back to Main Page
http://www.srh.noaa.gov/lzk/qfcst.php

USA.gov is the U.S. government's official web portal to all federal, state and local government web resources and services.